Historyczne dane pomiarowe

Dodano dane terminowe – wersja testowa.

Dane z okresu 1951-2019

Wersja bazy: 1.34 [2019-03-16, lista zmian], aktualizacja planowana na 2019-04-15

Dane meteo z obszaru Polski uzyskane na podstawie danych udostępnionych przez Instytut Meteorologii i Gospodarki Wodnej – Państwowy Instytut Badawczy.

 

Wybierz Datę:    

       

TemperaturaWilgotnośćWiatrCiśnienieOpadyŚniegCzas trwania zjawisk
 Stacja t tx tn tng RH VA  wxwx mslp ppp RRR   cm mm wxwxwxwxwxwxwx
1972-06-13 20.9 25.2 18.0 16.1-- 7.7 0.3---- 8.2------------
1972-06-14 16.3 18.9 14.2 13.0-- 7.3 0.7---- 8.1------------
1972-06-15 17.0 22.3 14.7 13.9-- 6.7 0.3---- 0.0------------
1972-06-16 15.1 20.0 12.9 12.5-- 6.7 1.3---- 0.0------------
1972-06-17 14.4 19.1 9.6 7.5-- 5.0 0.0---- 0.0------------
1972-06-18 16.0 20.5 10.8 8.5-- 5.3 0.7---- 0.0------------
1972-06-19 17.7 23.4 9.1 6.8-- 1.3 0.0---- 0.0------------
1972-06-20 17.1 22.2 13.1 10.5-- 1.7 0.7---- 0.0------------
1972-06-21 15.5 21.5 7.2 4.7-- 1.3 0.3---- 0.0------------
1972-06-22 20.2 27.0 11.8 9.5-- 0.3 0.0---- 0.0------------
1972-06-23 18.9 23.6 15.5 12.0-- 7.3 1.0---- 19.3------------
1972-06-24 12.4 15.6 10.6 10.0-- 7.3 0.0---- 1.0------------
1972-06-25 9.7 12.9 7.7 6.0-- 8.0 0.3---- 22.2------------
1972-06-26 12.8 16.5 7.7 8.5-- 5.0 0.0---- 0.2------------
1972-06-27 14.7 19.1 11.1 10.6-- 8.0 0.7---- 0.0------------
1972-06-28 16.3 23.2 11.6 9.0-- 7.7 0.0---- 4.1------------
1972-06-29 17.9 24.0 14.2 12.0-- 6.7 0.3---- 0.7------------
1972-06-30 20.1 25.0 14.9 12.6-- 4.7 0.0---- 0.0------------
1972-07-01 13.5 22.6 11.0 12.0-- 7.3 0.3---- 16.8------------
1972-07-02 14.9 19.9 9.4 6.8-- 2.3 0.7---- 0.0------------
1972-07-03 15.5 19.4 11.4 6.5-- 3.3 0.7---- 0.5------------
1972-07-04 14.5 19.1 13.0 12.0-- 6.0 0.0---- 1.7------------
1972-07-05 16.0 21.7 9.3 7.0-- 0.0 0.0---- 0.0------------
1972-07-06 17.9 24.5 10.3 8.2-- 0.7 0.0---- 0.0------------
1972-07-07 19.0 24.0 12.7 10.8-- 4.3 0.3---- 8.0------------
1972-07-08 20.0 24.5 14.7 12.5-- 3.7 0.3---- 0.0------------
1972-07-09 22.1 27.4 15.3 12.0-- 1.3 0.0---- 0.0------------
1972-07-10 21.3 28.5 15.2 13.6-- 2.0 0.3---- 29.5------------
1972-07-11 12.8 24.4 11.2 11.2-- 8.0 0.7---- 5.8------------
1972-07-12 12.4 14.1 10.1 11.0-- 8.0 1.3---- 2.0------------
143.6 ms

 

Źródłem pochodzenia danych jest Instytut Meteorologii i Gospodarki Wodnej – Państwowy Instytut Badawczy. Dane Instytutu Meteorologii i Gospodarki Wodnej – Państwowego Instytutu Badawczego zostały przetworzone.

Dane źródłowe można odnaleźć na stronie https://dane.imgw.pl